Terminal Aerodrome Forecast
Issued by NWS

Home | Current Version | Previous Version | Text Only | Print | Product List | Glossary On
Versions: 1 2 3 4 5 6 7 8 9 10 11 12 13 14 15 16 17
000
FTUS43 KICT 201735
TAFHUT
TAF
KHUT 201735Z 2018/2118 14015G22KT P6SM OVC200
     FM210300 11010KT P6SM VCSH OVC090
     FM210600 11008KT P6SM SHRA OVC070
     FM210800 11010KT 5SM SHRA OVC025
     FM211000 09010KT 4SM -RA OVC008=

USA.gov is the U.S. government's official web portal to all federal, state and local government web resources and services.